Regina International Airport
CYQR : now visible

Airfield :











YOU CAN JOIN US ON...

 
LOGIN :

Register | Disclaimer

   EN    FR    IT 

 









Legend :    VFR   Marginal VFR   IFR   Intensive IFR   Very Intensive IFR
Visi :
Ceiling :
>= 8 km
>= 3000ft
5 to 8 km
1000 to 3000 ft
1500m to 5 km
500 to 1000 ft
800 to 1500m
200 to 500 ft
< 800m
< 200 ft
Symbols :   Thunderstorms  Fog  Heavy snow  Heavy precipitations  Wind > 20 kt






- Airport Elevation : 1894 ft
- IATA code : YQR


CYQR - Regina International

CURRENT METAR :
  • 192300Z 36009KT 15SM OVC014 01/M01 A2983 RMK SC8 SLP132

EXPIRED METARs :
  • 192200Z 36005KT 15SM SCT014 BKN100 OVC250 02/M01 A2982 RMK SC3AC4CI1 SLP124
  • 192100Z 35006KT 15SM FEW035 SCT098 BKN250 02/M01 A2980 RMK SC1AC4CI3 SC TR SLP119
  • 192000Z 34005KT 300V010 15SM FEW035 FEW190 BKN250 02/M01 A2980 RMK SC1AC2CI5 SC TR SLP118

TAF TAF CYQR
Valid from the 19 at 12:00 until the 20 at 12:00 UTC


191139Z 1912/2012 28008KT P6SM SCT020 BKN200
TEMPO 1912/1920 BKN020
PROB30 1912/1916 1SM BR OVC004
FM192000 36006KT P6SM FEW020 SCT060 OVC120
FM200500 36012KT P6SM -SN FEW012 OVC060
TEMPO 2005/2012 2SM -SN SCT006 OVC012 RMK NXT FCST BY 191800Z



MET'MAP, your aeronautical weather chart ! - Copyright ORBIFLY December 2007 - Disclaimer

ORBIFLY MET'MAP TEAM :

Programming & Development : Alexandra Zaïnal
Concept & Development : Baudouin d'Aumeries
Co-Development & Prog : Marc-Olivier Méhu
Technical & hardware support : Manuel Goepfert

Contact : metmap@orbifly.com




SOURCES & CREDITS :

   NOAA       Earth
Advisory